sensor_id;sensor_type;location;lat;lon;timestamp;pressure;altitude;pressure_sealevel;temperature;humidity
73306;BME280;61530;51.158;0.880;2023-02-28T00:01:03;1028.26;;;4.625;30.0843
73306;BME280;61530;51.158;0.880;2023-02-28T00:02:07;1028.27;;;4.625;29.68
73306;BME280;61530;51.158;0.880;2023-02-28T00:03:10;1028.25;;;4.625;29.2509
73306;BME280;61530;51.158;0.880;2023-02-28T00:04:15;1028.25;;;4.625;28.9174
73306;BME280;61530;51.158;0.880;2023-02-28T00:05:20;1028.26;;;4.4375;29.0786
73306;BME280;61530;51.158;0.880;2023-02-28T00:06:23;1028.26;;;4.5;29.2174
73306;BME280;61530;51.158;0.880;2023-02-28T00:07:26;1028.26;;;4.4375;29.5304
73306;BME280;61530;51.158;0.880;2023-02-28T00:08:31;1028.24;;;4.4375;29.6376
73306;BME280;61530;51.158;0.880;2023-02-28T00:09:34;1028.21;;;4.3125;29.2793
73306;BME280;61530;51.158;0.880;2023-02-28T00:10:39;1028.24;;;4.25;30.7582
73306;BME280;61530;51.158;0.880;2023-02-28T00:11:42;1028.25;;;4.3125;29.9205
73306;BME280;61530;51.158;0.880;2023-02-28T00:12:47;1028.3;;;4.3125;29.5657
73306;BME280;61530;51.158;0.880;2023-02-28T00:13:50;1028.3;;;4.3125;29.2334
73306;BME280;61530;51.158;0.880;2023-02-28T00:14:55;1028.32;;;4.25;29.5094
73306;BME280;61530;51.158;0.880;2023-02-28T00:16:00;1028.33;;;4.1875;29.4455
73306;BME280;61530;51.158;0.880;2023-02-28T00:17:03;1028.35;;;4.3125;30.0663
73306;BME280;61530;51.158;0.880;2023-02-28T00:18:06;1028.33;;;4.3125;30.2641
73306;BME280;61530;51.158;0.880;2023-02-28T00:19:11;1028.3;;;4.25;30.6913
73306;BME280;61530;51.158;0.880;2023-02-28T00:20:14;1028.29;;;4.1875;30.3386
73306;BME280;61530;51.158;0.880;2023-02-28T00:21:20;1028.29;;;4.1875;30.4567
73306;BME280;61530;51.158;0.880;2023-02-28T00:22:22;1028.28;;;4.3125;31.4042
73306;BME280;61530;51.158;0.880;2023-02-28T00:23:28;1028.31;;;4.3125;30.8737
73306;BME280;61530;51.158;0.880;2023-02-28T00:24:30;1028.32;;;4.25;31.8485
73306;BME280;61530;51.158;0.880;2023-02-28T00:25:35;1028.33;;;4.3125;30.7879
73306;BME280;61530;51.158;0.880;2023-02-28T00:26:38;1028.32;;;4.1875;30.9144
73306;BME280;61530;51.158;0.880;2023-02-28T00:27:43;1028.31;;;4.1875;30.4401
73306;BME280;61530;51.158;0.880;2023-02-28T00:28:46;1028.31;;;4.125;31.6355
73306;BME280;61530;51.158;0.880;2023-02-28T00:29:51;1028.27;;;4.0625;31.9383
73306;BME280;61530;51.158;0.880;2023-02-28T00:30:54;1028.31;;;4.125;31.8168
73306;BME280;61530;51.158;0.880;2023-02-28T00:31:59;1028.28;;;4.125;31.295
73306;BME280;61530;51.158;0.880;2023-02-28T00:33:02;1028.26;;;4.0625;31.1233
73306;BME280;61530;51.158;0.880;2023-02-28T00:34:07;1028.29;;;4.0;31.7779
73306;BME280;61530;51.158;0.880;2023-02-28T00:35:11;1028.29;;;4.0625;30.8073
73306;BME280;61530;51.158;0.880;2023-02-28T00:36:15;1028.27;;;4.0;32.0314
73306;BME280;61530;51.158;0.880;2023-02-28T00:37:18;1028.27;;;4.0625;31.6754
73306;BME280;61530;51.158;0.880;2023-02-28T00:38:23;1028.25;;;4.0625;31.8603
73306;BME280;61530;51.158;0.880;2023-02-28T00:39:26;1028.25;;;4.0;31.2604
73306;BME280;61530;51.158;0.880;2023-02-28T00:40:31;1028.24;;;4.0;30.797
73306;BME280;61530;51.158;0.880;2023-02-28T00:41:34;1028.22;;;4.0;31.1223
73306;BME280;61530;51.158;0.880;2023-02-28T00:42:39;1028.25;;;4.0;30.5842
73306;BME280;61530;51.158;0.880;2023-02-28T00:43:42;1028.24;;;4.0625;30.9941
73306;BME280;61530;51.158;0.880;2023-02-28T00:44:47;1028.22;;;3.9375;30.6285
73306;BME280;61530;51.158;0.880;2023-02-28T00:45:50;1028.18;;;3.9375;30.7999
73306;BME280;61530;51.158;0.880;2023-02-28T00:46:55;1028.19;;;3.875;30.5941
73306;BME280;61530;51.158;0.880;2023-02-28T00:47:58;1028.17;;;3.9375;30.7086
73306;BME280;61530;51.158;0.880;2023-02-28T00:49:03;1028.14;;;3.875;30.7543
73306;BME280;61530;51.158;0.880;2023-02-28T00:50:07;1028.17;;;3.8125;30.7579
73306;BME280;61530;51.158;0.880;2023-02-28T00:51:11;1028.2;;;3.875;29.9644
73306;BME280;61530;51.158;0.880;2023-02-28T00:52:14;1028.23;;;3.8125;30.7543
73306;BME280;61530;51.158;0.880;2023-02-28T00:53:18;1028.24;;;3.8125;31.2448
73306;BME280;61530;51.158;0.880;2023-02-28T00:54:23;1028.26;;;3.6875;31.7067
73306;BME280;61530;51.158;0.880;2023-02-28T00:55:27;1028.23;;;3.6875;31.4654
73306;BME280;61530;51.158;0.880;2023-02-28T00:56:30;1028.25;;;3.6875;31.1147
73306;BME280;61530;51.158;0.880;2023-02-28T00:57:35;1028.27;;;3.625;31.4218
73306;BME280;61530;51.158;0.880;2023-02-28T00:58:40;1028.25;;;3.6875;30.9937
73306;BME280;61530;51.158;0.880;2023-02-28T00:59:43;1028.18;;;3.6875;30.9143
73306;BME280;61530;51.158;0.880;2023-02-28T01:00:46;1028.13;;;3.625;31.0263
73306;BME280;61530;51.158;0.880;2023-02-28T01:01:51;1028.11;;;3.5625;30.5628
73306;BME280;61530;51.158;0.880;2023-02-28T01:02:54;1028.13;;;3.5;30.7973
73306;BME280;61530;51.158;0.880;2023-02-28T01:03:59;1028.13;;;3.5;30.4677
73306;BME280;61530;51.158;0.880;2023-02-28T01:05:03;1028.14;;;3.4375;31.0037
73306;BME280;61530;51.158;0.880;2023-02-28T01:06:07;1028.15;;;3.4375;30.9866
73306;BME280;61530;51.158;0.880;2023-02-28T01:07:10;1028.13;;;3.3125;31.3711
73306;BME280;61530;51.158;0.880;2023-02-28T01:08:15;1028.14;;;3.375;31.0513
73306;BME280;61530;51.158;0.880;2023-02-28T01:09:18;1028.18;;;3.3125;30.8385
73306;BME280;61530;51.158;0.880;2023-02-28T01:10:23;1028.18;;;3.3125;31.0157
73306;BME280;61530;51.158;0.880;2023-02-28T01:11:26;1028.14;;;3.1875;31.1727
73306;BME280;61530;51.158;0.880;2023-02-28T01:12:31;1028.13;;;3.3125;31.3526
73306;BME280;61530;51.158;0.880;2023-02-28T01:13:34;1028.1;;;3.375;31.2103
73306;BME280;61530;51.158;0.880;2023-02-28T01:14:39;1028.12;;;3.3125;31.2734
73306;BME280;61530;51.158;0.880;2023-02-28T01:15:45;1028.11;;;3.125;31.6997
73306;BME280;61530;51.158;0.880;2023-02-28T01:16:47;1028.13;;;3.25;31.5351
73306;BME280;61530;51.158;0.880;2023-02-28T01:17:50;1028.13;;;3.125;31.5924
73306;BME280;61530;51.158;0.880;2023-02-28T01:18:54;1028.13;;;3.125;31.4406
73306;BME280;61530;51.158;0.880;2023-02-28T01:19:58;1028.15;;;3.0625;32.2782
73306;BME280;61530;51.158;0.880;2023-02-28T01:21:04;1028.15;;;3.125;31.8921
73306;BME280;61530;51.158;0.880;2023-02-28T01:22:07;1028.14;;;3.0625;31.8863
73306;BME280;61530;51.158;0.880;2023-02-28T01:23:10;1028.17;;;3.125;31.6072
73306;BME280;61530;51.158;0.880;2023-02-28T01:24:14;1028.17;;;3.0625;31.7555
73306;BME280;61530;51.158;0.880;2023-02-28T01:25:19;1028.16;;;3.1875;31.9067
73306;BME280;61530;51.158;0.880;2023-02-28T01:26:23;1028.11;;;3.1875;32.2661
73306;BME280;61530;51.158;0.880;2023-02-28T01:27:26;1028.11;;;3.125;32.0736
73306;BME280;61530;51.158;0.880;2023-02-28T01:28:30;1028.1;;;3.125;32.1084
73306;BME280;61530;51.158;0.880;2023-02-28T01:29:35;1028.09;;;3.0;31.8603
73306;BME280;61530;51.158;0.880;2023-02-28T01:30:38;1028.1;;;3.0;32.0143
73306;BME280;61530;51.158;0.880;2023-02-28T01:31:42;1028.1;;;3.0;32.3154
73306;BME280;61530;51.158;0.880;2023-02-28T01:32:46;1028.09;;;3.0;32.0513
73306;BME280;61530;51.158;0.880;2023-02-28T01:33:51;1028.09;;;3.0;31.6656
73306;BME280;61530;51.158;0.880;2023-02-28T01:34:55;1028.07;;;2.9375;32.001
73306;BME280;61530;51.158;0.880;2023-02-28T01:35:59;1028.03;;;2.875;32.418
73306;BME280;61530;51.158;0.880;2023-02-28T01:37:02;1028.01;;;2.875;32.1776
73306;BME280;61530;51.158;0.880;2023-02-28T01:38:07;1028.0;;;2.875;32.178
73306;BME280;61530;51.158;0.880;2023-02-28T01:39:10;1027.95;;;2.8125;32.2261
73306;BME280;61530;51.158;0.880;2023-02-28T01:40:14;1027.99;;;2.75;32.0746
73306;BME280;61530;51.158;0.880;2023-02-28T01:41:21;1027.99;;;2.6875;32.6614
73306;BME280;61530;51.158;0.880;2023-02-28T01:42:23;1028.0;;;2.625;32.6615
73306;BME280;61530;51.158;0.880;2023-02-28T01:43:29;1028.03;;;2.625;32.7164
73306;BME280;61530;51.158;0.880;2023-02-28T01:45:36;1028.02;;;2.625;32.4528
73306;BME280;61530;51.158;0.880;2023-02-28T01:45:39;1028.03;;;2.625;32.5034
73306;BME280;61530;51.158;0.880;2023-02-28T01:46:39;1028.02;;;2.625;32.3115
73306;BME280;61530;51.158;0.880;2023-02-28T01:47:43;1028.04;;;2.625;32.3548
73306;BME280;61530;51.158;0.880;2023-02-28T01:48:50;1028.05;;;2.625;31.9124
73306;BME280;61530;51.158;0.880;2023-02-28T01:49:50;1028.02;;;2.5;32.4674
73306;BME280;61530;51.158;0.880;2023-02-28T01:50:58;1027.99;;;2.5625;32.6072
73306;BME280;61530;51.158;0.880;2023-02-28T01:51:58;1028.0;;;2.5625;32.5433
73306;BME280;61530;51.158;0.880;2023-02-28T01:53:06;1028.01;;;2.5625;32.2071
73306;BME280;61530;51.158;0.880;2023-02-28T01:54:08;1028.0;;;2.5625;32.477
73306;BME280;61530;51.158;0.880;2023-02-28T01:55:12;1028.01;;;2.4375;32.3309
73306;BME280;61530;51.158;0.880;2023-02-28T01:56:17;1028.01;;;2.375;32.7289
73306;BME280;61530;51.158;0.880;2023-02-28T01:57:21;1027.98;;;2.4375;32.9531
73306;BME280;61530;51.158;0.880;2023-02-28T01:58:22;1028.01;;;2.375;32.6459
73306;BME280;61530;51.158;0.880;2023-02-28T01:59:31;1027.99;;;2.375;33.2763
73306;BME280;61530;51.158;0.880;2023-02-28T02:00:32;1027.99;;;2.375;33.2016
73306;BME280;61530;51.158;0.880;2023-02-28T02:01:35;1028.04;;;2.3125;33.1949
73306;BME280;61530;51.158;0.880;2023-02-28T02:02:38;1028.02;;;2.375;33.1156
73306;BME280;61530;51.158;0.880;2023-02-28T02:03:43;1028.03;;;2.4375;32.9106
73306;BME280;61530;51.158;0.880;2023-02-28T02:04:52;1028.03;;;2.5;33.222
73306;BME280;61530;51.158;0.880;2023-02-28T02:05:50;1028.06;;;2.5625;33.5363
73306;BME280;61530;51.158;0.880;2023-02-28T02:06:54;1028.09;;;2.625;34.3551
73306;BME280;61530;51.158;0.880;2023-02-28T02:08:04;1028.08;;;2.625;33.9702
73306;BME280;61530;51.158;0.880;2023-02-28T02:09:03;1028.1;;;2.625;33.5702
73306;BME280;61530;51.158;0.880;2023-02-28T02:10:12;1028.11;;;2.75;33.1283
73306;BME280;61530;51.158;0.880;2023-02-28T02:11:11;1028.14;;;2.8125;33.8678
73306;BME280;61530;51.158;0.880;2023-02-28T02:12:25;1028.15;;;2.8125;33.9299
73306;BME280;61530;51.158;0.880;2023-02-28T02:13:29;1028.13;;;2.75;33.7871
73306;BME280;61530;51.158;0.880;2023-02-28T02:14:34;1028.12;;;2.8125;34.3877
73306;BME280;61530;51.158;0.880;2023-02-28T02:15:31;1028.13;;;2.875;33.739
73306;BME280;61530;51.158;0.880;2023-02-28T02:16:40;1028.09;;;2.875;33.6795
73306;BME280;61530;51.158;0.880;2023-02-28T02:17:38;1028.07;;;2.9375;33.2871
73306;BME280;61530;51.158;0.880;2023-02-28T02:18:43;1028.06;;;3.0;33.4409
73306;BME280;61530;51.158;0.880;2023-02-28T02:20:16;1028.05;;;3.0;33.4982
73306;BME280;61530;51.158;0.880;2023-02-28T02:23:48;1028.05;;;2.9375;33.3445
73306;BME280;61530;51.158;0.880;2023-02-28T02:31:27;1028.05;;;2.625;33.1446
73306;BME280;61530;51.158;0.880;2023-02-28T02:32:27;1028.03;;;2.8125;33.4173
73306;BME280;61530;51.158;0.880;2023-02-28T02:34:36;1028.02;;;2.8125;33.2637
73306;BME280;61530;51.158;0.880;2023-02-28T02:34:45;1028.02;;;2.5625;33.087
73306;BME280;61530;51.158;0.880;2023-02-28T02:35:49;1028.03;;;2.625;33.3162
73306;BME280;61530;51.158;0.880;2023-02-28T02:36:49;1028.05;;;2.6875;32.8952
73306;BME280;61530;51.158;0.880;2023-02-28T02:37:57;1028.06;;;2.6875;33.3145
73306;BME280;61530;51.158;0.880;2023-02-28T02:39:03;1028.03;;;2.6875;33.3726
73306;BME280;61530;51.158;0.880;2023-02-28T02:40:05;1028.02;;;2.625;33.2442
73306;BME280;61530;51.158;0.880;2023-02-28T02:41:08;1027.97;;;2.625;33.4063
73306;BME280;61530;51.158;0.880;2023-02-28T02:42:14;1027.96;;;2.5625;32.4895
73306;BME280;61530;51.158;0.880;2023-02-28T02:43:16;1027.93;;;2.5;33.8312
73306;BME280;61530;51.158;0.880;2023-02-28T02:44:21;1027.91;;;2.4375;33.4848
73306;BME280;61530;51.158;0.880;2023-02-28T02:45:24;1027.9;;;2.375;34.0139
73306;BME280;61530;51.158;0.880;2023-02-28T02:46:26;1027.91;;;2.3125;33.5485
73306;BME280;61530;51.158;0.880;2023-02-28T02:47:29;1027.9;;;2.25;33.2208
73306;BME280;61530;51.158;0.880;2023-02-28T02:48:34;1027.91;;;2.1875;33.4367
73306;BME280;61530;51.158;0.880;2023-02-28T02:49:36;1027.94;;;2.25;33.4383
73306;BME280;61530;51.158;0.880;2023-02-28T02:50:42;1027.92;;;2.1875;33.8473
73306;BME280;61530;51.158;0.880;2023-02-28T02:51:43;1027.96;;;2.125;33.6432
73306;BME280;61530;51.158;0.880;2023-02-28T02:52:51;1027.98;;;2.1875;34.1658
73306;BME280;61530;51.158;0.880;2023-02-28T02:53:53;1028.01;;;2.1875;33.9638
73306;BME280;61530;51.158;0.880;2023-02-28T02:54:56;1028.01;;;2.25;34.3947
73306;BME280;61530;51.158;0.880;2023-02-28T02:56:00;1028.01;;;2.25;34.529
73306;BME280;61530;51.158;0.880;2023-02-28T02:57:07;1028.01;;;2.375;34.7553
73306;BME280;61530;51.158;0.880;2023-02-28T02:58:09;1028.03;;;2.375;33.9481
73306;BME280;61530;51.158;0.880;2023-02-28T02:59:16;1028.02;;;2.4375;34.3466
73306;BME280;61530;51.158;0.880;2023-02-28T03:00:16;1028.05;;;2.4375;33.8455
73306;BME280;61530;51.158;0.880;2023-02-28T03:01:21;1028.03;;;2.5625;33.226
73306;BME280;61530;51.158;0.880;2023-02-28T03:02:23;1028.05;;;2.6875;34.9224
73306;BME280;61530;51.158;0.880;2023-02-28T03:03:27;1028.07;;;2.8125;34.8864
73306;BME280;61530;51.158;0.880;2023-02-28T03:04:33;1028.01;;;2.9375;33.6348
73306;BME280;61530;51.158;0.880;2023-02-28T03:05:41;1028.02;;;2.9375;34.6227
73306;BME280;61530;51.158;0.880;2023-02-28T03:06:38;1028.0;;;3.0625;34.5554
73306;BME280;61530;51.158;0.880;2023-02-28T03:07:43;1028.02;;;3.0;34.5772
73306;BME280;61530;51.158;0.880;2023-02-28T03:08:46;1028.01;;;3.0625;34.6898
73306;BME280;61530;51.158;0.880;2023-02-28T03:09:51;1028.02;;;3.1875;34.1083
73306;BME280;61530;51.158;0.880;2023-02-28T03:10:58;1028.04;;;3.25;34.1755
73306;BME280;61530;51.158;0.880;2023-02-28T03:11:59;1028.03;;;3.25;33.7417
73306;BME280;61530;51.158;0.880;2023-02-28T03:13:15;1028.08;;;3.3125;34.2427
73306;BME280;61530;51.158;0.880;2023-02-28T03:14:34;1028.03;;;3.4375;36.2751
73306;BME280;61530;51.158;0.880;2023-02-28T03:15:17;1028.03;;;3.5625;34.4422
73306;BME280;61530;51.158;0.880;2023-02-28T03:16:29;1028.06;;;3.625;36.0871
73306;BME280;61530;51.158;0.880;2023-02-28T03:17:30;1028.08;;;3.6875;35.8639
73306;BME280;61530;51.158;0.880;2023-02-28T03:18:28;1028.06;;;3.75;35.8354
73306;BME280;61530;51.158;0.880;2023-02-28T03:19:37;1028.08;;;3.6875;35.851
73306;BME280;61530;51.158;0.880;2023-02-28T03:20:37;1028.08;;;3.75;35.5257
73306;BME280;61530;51.158;0.880;2023-02-28T03:21:37;1028.06;;;3.875;35.3886
73306;BME280;61530;51.158;0.880;2023-02-28T03:22:46;1028.05;;;3.9375;35.5362
73306;BME280;61530;51.158;0.880;2023-02-28T03:23:48;1028.06;;;4.0;34.4631
73306;BME280;61530;51.158;0.880;2023-02-28T03:24:53;1028.07;;;3.9375;35.113
73306;BME280;61530;51.158;0.880;2023-02-28T03:25:56;1028.06;;;3.9375;35.158
73306;BME280;61530;51.158;0.880;2023-02-28T03:26:58;1028.06;;;4.0;35.0559
73306;BME280;61530;51.158;0.880;2023-02-28T03:28:05;1028.05;;;4.0625;35.3176
73306;BME280;61530;51.158;0.880;2023-02-28T03:29:06;1028.06;;;4.0;35.1353
73306;BME280;61530;51.158;0.880;2023-02-28T03:30:13;1028.01;;;4.0625;35.4727
73306;BME280;61530;51.158;0.880;2023-02-28T03:31:16;1028.08;;;4.0;35.2499
73306;BME280;61530;51.158;0.880;2023-02-28T03:32:18;1028.11;;;4.125;35.7399
73306;BME280;61530;51.158;0.880;2023-02-28T03:33:22;1028.16;;;4.125;35.6089
73306;BME280;61530;51.158;0.880;2023-02-28T03:34:28;1028.13;;;4.1875;35.2123
73306;BME280;61530;51.158;0.880;2023-02-28T03:35:32;1028.15;;;4.1875;35.2619
73306;BME280;61530;51.158;0.880;2023-02-28T03:36:33;1028.16;;;4.25;35.563
73306;BME280;61530;51.158;0.880;2023-02-28T03:37:38;1028.18;;;4.25;35.1584
73306;BME280;61530;51.158;0.880;2023-02-28T03:38:42;1028.15;;;4.25;34.6391
73306;BME280;61530;51.158;0.880;2023-02-28T03:39:44;1028.16;;;4.3125;35.062
73306;BME280;61530;51.158;0.880;2023-02-28T03:40:49;1028.15;;;4.3125;35.4236
73306;BME280;61530;51.158;0.880;2023-02-28T03:41:54;1028.14;;;4.3125;35.182
73306;BME280;61530;51.158;0.880;2023-02-28T03:42:59;1028.15;;;4.25;32.9514
73306;BME280;61530;51.158;0.880;2023-02-28T03:44:03;1028.14;;;4.3125;35.599
73306;BME280;61530;51.158;0.880;2023-02-28T03:45:05;1028.12;;;4.3125;36.1979
73306;BME280;61530;51.158;0.880;2023-02-28T03:46:10;1028.13;;;4.25;34.2198
73306;BME280;61530;51.158;0.880;2023-02-28T03:47:15;1028.13;;;4.25;35.7463
73306;BME280;61530;51.158;0.880;2023-02-28T03:48:18;1028.13;;;4.25;36.9543
73306;BME280;61530;51.158;0.880;2023-02-28T03:49:21;1028.13;;;4.375;36.8056
73306;BME280;61530;51.158;0.880;2023-02-28T03:50:25;1028.16;;;4.3125;36.4297
73306;BME280;61530;51.158;0.880;2023-02-28T03:51:28;1028.12;;;4.4375;35.7297
73306;BME280;61530;51.158;0.880;2023-02-28T03:52:34;1028.09;;;4.4375;37.8926
73306;BME280;61530;51.158;0.880;2023-02-28T03:53:37;1028.11;;;4.4375;36.5858
73306;BME280;61530;51.158;0.880;2023-02-28T03:54:43;1028.09;;;4.4375;37.8468
73306;BME280;61530;51.158;0.880;2023-02-28T03:55:45;1028.09;;;4.4375;35.8819
73306;BME280;61530;51.158;0.880;2023-02-28T03:56:51;1028.07;;;4.375;36.5743
73306;BME280;61530;51.158;0.880;2023-02-28T03:57:56;1028.13;;;4.375;37.9205
73306;BME280;61530;51.158;0.880;2023-02-28T03:58:58;1028.14;;;4.5;37.4656
73306;BME280;61530;51.158;0.880;2023-02-28T04:00:03;1028.13;;;4.5;38.2784
73306;BME280;61530;51.158;0.880;2023-02-28T04:01:08;1028.13;;;4.5;37.961
73306;BME280;61530;51.158;0.880;2023-02-28T04:02:07;1028.12;;;4.5;38.2841
73306;BME280;61530;51.158;0.880;2023-02-28T04:03:11;1028.16;;;4.5625;37.4821
73306;BME280;61530;51.158;0.880;2023-02-28T04:04:15;1028.18;;;4.5;36.6419
73306;BME280;61530;51.158;0.880;2023-02-28T04:05:19;1028.17;;;4.5625;38.1425
73306;BME280;61530;51.158;0.880;2023-02-28T04:06:23;1028.2;;;4.5;38.9367
73306;BME280;61530;51.158;0.880;2023-02-28T04:07:30;1028.15;;;4.5;38.0061
73306;BME280;61530;51.158;0.880;2023-02-28T04:08:30;1028.16;;;4.4375;38.2445
73306;BME280;61530;51.158;0.880;2023-02-28T04:09:35;1028.15;;;4.5;38.426
73306;BME280;61530;51.158;0.880;2023-02-28T04:10:39;1028.16;;;4.625;37.6472
73306;BME280;61530;51.158;0.880;2023-02-28T04:11:44;1028.16;;;4.625;37.1232
73306;BME280;61530;51.158;0.880;2023-02-28T04:12:46;1028.15;;;4.5625;36.731
73306;BME280;61530;51.158;0.880;2023-02-28T04:13:50;1028.16;;;4.5;36.4558
73306;BME280;61530;51.158;0.880;2023-02-28T04:14:54;1028.17;;;4.5;36.6734
73306;BME280;61530;51.158;0.880;2023-02-28T04:15:59;1028.17;;;4.5625;36.9933
73306;BME280;61530;51.158;0.880;2023-02-28T04:17:03;1028.16;;;4.5625;37.003
73306;BME280;61530;51.158;0.880;2023-02-28T04:18:07;1028.18;;;4.5625;36.1088
73306;BME280;61530;51.158;0.880;2023-02-28T04:19:12;1028.15;;;4.5;37.1695
73306;BME280;61530;51.158;0.880;2023-02-28T04:20:15;1028.16;;;4.4375;37.0725
73306;BME280;61530;51.158;0.880;2023-02-28T04:21:18;1028.16;;;4.5;36.7307
73306;BME280;61530;51.158;0.880;2023-02-28T04:22:23;1028.13;;;4.4375;34.9452
73306;BME280;61530;51.158;0.880;2023-02-28T04:23:26;1028.16;;;4.5;36.2242
73306;BME280;61530;51.158;0.880;2023-02-28T04:24:31;1028.16;;;4.5;36.9525
73306;BME280;61530;51.158;0.880;2023-02-28T04:25:34;1028.15;;;4.5;36.8913
73306;BME280;61530;51.158;0.880;2023-02-28T04:26:38;1028.15;;;4.5625;36.3433
73306;BME280;61530;51.158;0.880;2023-02-28T04:27:42;1028.15;;;4.5;34.7274
73306;BME280;61530;51.158;0.880;2023-02-28T04:28:47;1028.15;;;4.5;38.1644
73306;BME280;61530;51.158;0.880;2023-02-28T04:29:50;1028.13;;;4.5;37.1753
73306;BME280;61530;51.158;0.880;2023-02-28T04:30:55;1028.13;;;4.375;36.8154
73306;BME280;61530;51.158;0.880;2023-02-28T04:31:59;1028.15;;;4.4375;36.7302
73306;BME280;61530;51.158;0.880;2023-02-28T04:33:03;1028.12;;;4.4375;35.3479
73306;BME280;61530;51.158;0.880;2023-02-28T04:34:06;1028.12;;;4.375;34.8661
73306;BME280;61530;51.158;0.880;2023-02-28T04:35:10;1028.11;;;4.375;35.4907
73306;BME280;61530;51.158;0.880;2023-02-28T04:36:14;1028.13;;;4.4375;36.22
73306;BME280;61530;51.158;0.880;2023-02-28T04:37:19;1028.15;;;4.4375;37.2368
73306;BME280;61530;51.158;0.880;2023-02-28T04:38:22;1028.19;;;4.5625;36.947
73306;BME280;61530;51.158;0.880;2023-02-28T04:39:26;1028.18;;;4.4375;36.9756
73306;BME280;61530;51.158;0.880;2023-02-28T04:40:30;1028.15;;;4.5;36.6326
73306;BME280;61530;51.158;0.880;2023-02-28T04:41:35;1028.17;;;4.4375;34.9157
73306;BME280;61530;51.158;0.880;2023-02-28T04:42:38;1028.19;;;4.4375;37.0367
73306;BME280;61530;51.158;0.880;2023-02-28T04:43:42;1028.21;;;4.5;36.0224
73306;BME280;61530;51.158;0.880;2023-02-28T04:44:46;1028.2;;;4.5;34.9921
73306;BME280;61530;51.158;0.880;2023-02-28T04:45:51;1028.19;;;4.5;37.2309
73306;BME280;61530;51.158;0.880;2023-02-28T04:46:54;1028.2;;;4.5;37.0031
73306;BME280;61530;51.158;0.880;2023-02-28T04:47:58;1028.19;;;4.5625;37.266
73306;BME280;61530;51.158;0.880;2023-02-28T04:49:02;1028.21;;;4.5625;37.4928
73306;BME280;61530;51.158;0.880;2023-02-28T04:50:08;1028.24;;;4.5;36.7059
73306;BME280;61530;51.158;0.880;2023-02-28T04:51:12;1028.26;;;4.5625;36.6032
73306;BME280;61530;51.158;0.880;2023-02-28T04:52:15;1028.27;;;4.5625;36.0568
73306;BME280;61530;51.158;0.880;2023-02-28T04:53:18;1028.29;;;4.4375;37.3506
73306;BME280;61530;51.158;0.880;2023-02-28T04:54:23;1028.3;;;4.4375;35.1265
73306;BME280;61530;51.158;0.880;2023-02-28T04:55:26;1028.31;;;4.5;37.1394
73306;BME280;61530;51.158;0.880;2023-02-28T04:56:30;1028.35;;;4.4375;36.9056
73306;BME280;61530;51.158;0.880;2023-02-28T04:57:34;1028.36;;;4.4375;36.5293
73306;BME280;61530;51.158;0.880;2023-02-28T04:58:39;1028.34;;;4.4375;36.4493
73306;BME280;61530;51.158;0.880;2023-02-28T04:59:42;1028.35;;;4.5;37.2425
73306;BME280;61530;51.158;0.880;2023-02-28T05:00:46;1028.37;;;4.5;34.904
73306;BME280;61530;51.158;0.880;2023-02-28T05:01:50;1028.37;;;4.4375;36.7759
73306;BME280;61530;51.158;0.880;2023-02-28T05:02:55;1028.39;;;4.5;37.3686
73306;BME280;61530;51.158;0.880;2023-02-28T05:04:00;1028.4;;;4.5;37.9025
73306;BME280;61530;51.158;0.880;2023-02-28T05:05:03;1028.41;;;4.5;38.1755
73306;BME280;61530;51.158;0.880;2023-02-28T05:06:06;1028.46;;;4.5;37.8519
73306;BME280;61530;51.158;0.880;2023-02-28T05:07:11;1028.43;;;4.5;38.5619
73306;BME280;61530;51.158;0.880;2023-02-28T05:08:14;1028.42;;;4.5625;38.7264
73306;BME280;61530;51.158;0.880;2023-02-28T05:09:18;1028.42;;;4.5625;38.4651
73306;BME280;61530;51.158;0.880;2023-02-28T05:10:22;1028.42;;;4.5625;38.2325
73306;BME280;61530;51.158;0.880;2023-02-28T05:11:29;1028.43;;;4.5625;38.3572
73306;BME280;61530;51.158;0.880;2023-02-28T05:12:30;1028.42;;;4.5;38.8229
73306;BME280;61530;51.158;0.880;2023-02-28T05:13:34;1028.41;;;4.5625;37.8629
73306;BME280;61530;51.158;0.880;2023-02-28T05:14:38;1028.42;;;4.5;38.6696
73306;BME280;61530;51.158;0.880;2023-02-28T05:15:43;1028.39;;;4.5625;37.754
73306;BME280;61530;51.158;0.880;2023-02-28T05:16:46;1028.38;;;4.625;37.2349
73306;BME280;61530;51.158;0.880;2023-02-28T05:17:51;1028.36;;;4.5625;36.1325
73306;BME280;61530;51.158;0.880;2023-02-28T05:18:54;1028.37;;;4.5625;38.1179
73306;BME280;61530;51.158;0.880;2023-02-28T05:19:59;1028.33;;;4.5625;37.7994
73306;BME280;61530;51.158;0.880;2023-02-28T05:21:03;1028.3;;;4.625;36.356
73306;BME280;61530;51.158;0.880;2023-02-28T05:22:13;1028.3;;;4.5625;37.7766
73306;BME280;61530;51.158;0.880;2023-02-28T05:23:11;1028.32;;;4.625;37.834
73306;BME280;61530;51.158;0.880;2023-02-28T05:24:15;1028.27;;;4.5625;38.4371
73306;BME280;61530;51.158;0.880;2023-02-28T05:25:20;1028.34;;;4.625;38.118
73306;BME280;61530;51.158;0.880;2023-02-28T05:26:23;1028.35;;;4.5625;37.5257
73306;BME280;61530;51.158;0.880;2023-02-28T05:27:26;1028.36;;;4.5625;37.2772
73306;BME280;61530;51.158;0.880;2023-02-28T05:28:31;1028.34;;;4.625;38.4254
73306;BME280;61530;51.158;0.880;2023-02-28T05:29:34;1028.32;;;4.5625;39.4469
73306;BME280;61530;51.158;0.880;2023-02-28T05:30:38;1028.31;;;4.5625;39.5606
73306;BME280;61530;51.158;0.880;2023-02-28T05:31:42;1028.32;;;4.5;38.7548
73306;BME280;61530;51.158;0.880;2023-02-28T05:32:50;1028.34;;;4.5;39.8891
73306;BME280;61530;51.158;0.880;2023-02-28T05:33:50;1028.34;;;4.5625;40.0477
73306;BME280;61530;51.158;0.880;2023-02-28T05:34:55;1028.35;;;4.5625;38.9762
73306;BME280;61530;51.158;0.880;2023-02-28T05:35:58;1028.35;;;4.5625;38.044
73306;BME280;61530;51.158;0.880;2023-02-28T05:37:03;1028.32;;;4.625;37.7031
73306;BME280;61530;51.158;0.880;2023-02-28T05:38:06;1028.3;;;4.625;37.6169
73306;BME280;61530;51.158;0.880;2023-02-28T05:39:10;1028.32;;;4.6875;36.5002
73306;BME280;61530;51.158;0.880;2023-02-28T05:40:14;1028.31;;;4.625;38.2659
73306;BME280;61530;51.158;0.880;2023-02-28T05:41:20;1028.33;;;4.625;39.05
73306;BME280;61530;51.158;0.880;2023-02-28T05:42:22;1028.34;;;4.625;38.6016
73306;BME280;61530;51.158;0.880;2023-02-28T05:43:27;1028.37;;;4.625;38.8343
73306;BME280;61530;51.158;0.880;2023-02-28T05:44:30;1028.33;;;4.625;38.2669